Time;durP1;ratioP1;P1;durP2;ratioP2;P2;SDS_P1;SDS_P2;PMS_P1;PMS_P2;Temp;Humidity;BMP_temperature;BMP_pressure;BME280_temperature;BME280_humidity;BME280_pressure;Samples;Min_cycle;Max_cycle;Signal;HPM_P1;HPM_P2
2022/11/12 18:26:50;;;;;;;34.20;10.53;;;24.30;63.50;;;;;;5638848;22;20619;-85
2022/11/12 18:29:18;;;;;;;31.70;11.93;;;24.30;62.50;;;;;;5032539;28;20476;-86
2022/11/12 18:31:46;;;;;;;20.80;12.00;;;24.30;63.00;;;;;;5032412;28;20514;-85
2022/11/12 18:34:14;;;;;;;21.47;10.80;;;24.30;63.10;;;;;;5032710;28;20482;-84
2022/11/12 18:36:41;;;;;;;26.47;10.97;;;24.30;63.00;;;;;;5033067;28;20933;-83
2022/11/12 18:39:11;;;;;;;27.50;12.20;;;24.40;62.90;;;;;;5034774;28;20439;-83
2022/11/12 18:41:51;;;;;;;19.03;9.93;;;24.50;63.00;;;;;;5037588;28;20442;-83
2022/11/12 18:44:19;;;;;;;32.73;11.80;;;24.40;62.40;;;;;;5036977;28;20458;-86
2022/11/12 18:46:46;;;;;;;24.63;9.67;;;24.40;62.80;;;;;;5037162;28;20542;-86
2022/11/12 18:49:13;;;;;;;27.63;10.30;;;24.40;62.90;;;;;;5036792;28;20443;-83
2022/11/12 18:51:40;;;;;;;31.33;10.13;;;24.40;62.90;;;;;;5036624;28;20498;-85
2022/11/12 18:54:07;;;;;;;32.43;10.57;;;24.40;62.80;;;;;;5036340;28;20448;-86
2022/11/12 18:56:46;;;;;;;26.80;9.13;;;24.40;62.80;;;;;;5036461;28;20486;-84
2022/11/12 18:59:22;;;;;;;25.30;9.07;;;24.40;62.80;;;;;;5037183;28;20449;-83
2022/11/12 19:01:50;;;;;;;30.73;8.37;;;24.40;62.80;;;;;;5037105;28;20436;-86
2022/11/12 19:04:17;;;;;;;17.10;9.50;;;24.40;62.40;;;;;;5036220;28;20972;-82
2022/11/12 19:06:43;;;;;;;28.20;10.37;;;24.30;62.10;;;;;;5036371;28;20797;-83
2022/11/12 19:09:12;;;;;;;26.70;10.00;;;24.40;62.10;;;;;;5036398;28;20546;-81
2022/11/12 19:11:39;;;;;;;18.90;8.27;;;24.40;62.10;;;;;;5036153;28;20488;-81
2022/11/12 19:14:06;;;;;;;24.47;8.40;;;24.40;61.90;;;;;;5035905;28;20444;-81
2022/11/12 19:16:33;;;;;;;18.07;8.10;;;24.40;61.80;;;;;;5036296;28;20447;-85
2022/11/12 19:19:01;;;;;;;26.33;8.90;;;24.40;61.90;;;;;;5035958;28;20458;-81
2022/11/12 19:21:28;;;;;;;19.50;9.47;;;24.40;61.50;;;;;;5036091;28;20438;-85
2022/11/12 19:23:56;;;;;;;16.87;8.60;;;24.40;61.50;;;;;;5035784;28;20448;-81
2022/11/12 19:26:28;;;;;;;19.30;8.87;;;24.40;61.60;;;;;;5036702;28;20833;-85
2022/11/12 19:28:55;;;;;;;19.20;9.10;;;24.40;61.50;;;;;;5035728;28;20507;-85
2022/11/12 19:31:26;;;;;;;22.37;9.00;;;24.40;61.50;;;;;;5035628;28;20487;-85
2022/11/12 19:33:54;;;;;;;21.97;8.87;;;24.40;61.60;;;;;;5036059;28;20436;-83
2022/11/12 19:36:25;;;;;;;17.07;7.60;;;24.40;61.60;;;;;;5035872;28;20804;-83
2022/11/12 19:38:55;;;;;;;20.40;8.60;;;24.40;61.50;;;;;;5035599;28;20531;-85
2022/11/12 19:41:22;;;;;;;20.33;8.53;;;24.40;61.40;;;;;;5035659;28;20462;-81
2022/11/12 19:43:49;;;;;;;15.90;7.60;;;24.40;61.40;;;;;;5035458;28;20538;-82
2022/11/12 19:46:17;;;;;;;23.10;7.30;;;24.40;61.50;;;;;;5035592;28;20448;-83
2022/11/12 19:48:44;;;;;;;14.13;7.10;;;24.50;61.50;;;;;;5035512;28;20448;-83
2022/11/12 19:51:12;;;;;;;17.33;6.53;;;24.40;61.40;;;;;;5034840;28;20598;-82
2022/11/12 19:53:43;;;;;;;11.23;6.23;;;24.40;61.30;;;;;;5035435;28;20459;-82
2022/11/12 19:56:12;;;;;;;14.97;7.37;;;24.40;61.40;;;;;;5035268;28;20435;-82
2022/11/12 19:58:38;;;;;;;14.53;6.43;;;24.40;61.30;;;;;;5035134;28;21059;-82
2022/11/12 20:01:06;;;;;;;11.30;6.80;;;24.40;61.30;;;;;;5035397;28;20474;-82
2022/11/12 20:03:34;;;;;;;12.47;6.83;;;24.40;61.20;;;;;;5035289;28;20457;-81
2022/11/12 20:06:01;;;;;;;14.30;6.80;;;24.40;61.20;;;;;;5035262;28;20450;-82
2022/11/12 20:08:28;;;;;;;16.77;7.30;;;24.40;61.30;;;;;;5035248;28;20451;-84
2022/11/12 20:10:57;;;;;;;15.50;6.47;;;24.40;61.20;;;;;;5035088;28;20480;-84
2022/11/12 20:13:23;;;;;;;15.70;7.13;;;24.40;61.20;;;;;;5034857;28;20535;-86
2022/11/12 20:15:50;;;;;;;15.40;7.20;;;24.40;61.10;;;;;;5035139;28;20450;-81
2022/11/12 20:18:17;;;;;;;12.40;6.83;;;24.40;61.10;;;;;;5035089;28;20451;-84
2022/11/12 20:20:47;;;;;;;14.60;7.07;;;24.40;61.20;;;;;;5035058;28;20451;-82
2022/11/12 20:23:14;;;;;;;10.23;6.43;;;24.40;61.10;;;;;;5035214;28;20532;-82
2022/11/12 20:25:41;;;;;;;9.93;6.50;;;24.40;61.20;;;;;;5034934;28;20535;-82
2022/11/12 20:28:09;;;;;;;10.47;7.23;;;24.40;61.20;;;;;;5034440;28;20479;-81
2022/11/12 20:30:36;;;;;;;15.67;6.93;;;24.40;61.20;;;;;;5034721;28;20452;-82
2022/11/12 20:33:03;;;;;;;7.93;5.80;;;24.40;61.20;;;;;;5034741;28;20444;-81
2022/11/12 20:35:33;;;;;;;16.80;7.10;;;24.40;61.20;;;;;;5034487;28;20513;-82
2022/11/12 20:38:00;;;;;;;14.90;7.90;;;24.40;61.30;;;;;;5034806;28;20500;-81
2022/11/12 20:40:27;;;;;;;12.17;6.30;;;24.40;61.30;;;;;;5034472;28;20441;-81
2022/11/12 20:42:54;;;;;;;11.83;6.53;;;24.40;61.40;;;;;;5034195;28;20445;-81
2022/11/12 20:45:23;;;;;;;8.67;6.17;;;24.30;60.60;;;;;;5034531;28;20453;-81
2022/11/12 20:47:49;;;;;;;9.30;6.27;;;24.30;60.70;;;;;;5034245;28;20451;-80
2022/11/12 20:50:17;;;;;;;13.97;6.83;;;24.30;61.70;;;;;;5034274;28;20451;-81
2022/11/12 20:52:43;;;;;;;10.50;6.03;;;24.40;61.20;;;;;;5035229;28;21018;-81
2022/11/12 20:55:10;;;;;;;13.33;6.80;;;24.30;61.20;;;;;;5034147;28;20440;-82
2022/11/12 20:57:37;;;;;;;10.60;6.27;;;24.30;61.20;;;;;;5034237;28;20466;-82
2022/11/12 21:00:05;;;;;;;12.30;6.60;;;24.30;61.20;;;;;;5033978;28;20944;-82
2022/11/12 21:02:33;;;;;;;9.30;6.17;;;24.30;61.20;;;;;;5034136;28;20447;-84
2022/11/12 21:05:00;;;;;;;9.67;5.87;;;24.30;61.10;;;;;;5033890;28;20444;-81
2022/11/12 21:07:26;;;;;;;12.93;6.60;;;24.30;61.20;;;;;;5034113;28;20947;-81
2022/11/12 21:09:53;;;;;;;9.73;5.90;;;24.30;61.20;;;;;;5034202;28;20448;-81
2022/11/12 21:12:20;;;;;;;8.50;5.63;;;24.30;61.20;;;;;;5033997;28;20494;-81
2022/11/12 21:14:47;;;;;;;9.23;5.50;;;24.30;61.20;;;;;;5033897;28;20447;-81
2022/11/12 21:17:13;;;;;;;8.67;5.37;;;24.30;61.20;;;;;;5033844;28;20444;-80
2022/11/12 21:19:41;;;;;;;9.90;6.00;;;24.30;62.00;;;;;;5033694;28;20450;-80
2022/11/12 21:22:08;;;;;;;6.67;5.63;;;24.30;61.20;;;;;;5033999;28;20808;-81
2022/11/12 21:24:35;;;;;;;7.40;5.40;;;24.30;61.30;;;;;;5033911;28;20448;-81
2022/11/12 21:27:02;;;;;;;10.93;6.07;;;24.30;61.30;;;;;;5033629;28;20445;-81
2022/11/12 21:29:28;;;;;;;10.40;6.40;;;24.40;61.40;;;;;;5033841;28;20441;-83
2022/11/12 21:31:55;;;;;;;9.87;5.37;;;24.40;61.40;;;;;;5033783;28;20484;-82
2022/11/12 21:34:22;;;;;;;8.43;5.60;;;24.30;61.30;;;;;;5033765;28;20796;-83
2022/11/12 21:36:50;;;;;;;10.63;5.50;;;24.30;61.30;;;;;;5033880;28;20451;-83
2022/11/12 21:39:17;;;;;;;10.77;5.57;;;24.30;61.20;;;;;;5033353;28;20457;-83
2022/11/12 21:41:44;;;;;;;8.63;5.80;;;24.40;61.40;;;;;;5033668;28;20834;-82
2022/11/12 21:44:10;;;;;;;8.60;5.17;;;24.30;61.20;;;;;;5033675;28;20802;-81
2022/11/12 21:46:39;;;;;;;8.13;5.63;;;24.30;61.20;;;;;;5033647;28;20570;-81
2022/11/12 21:49:06;;;;;;;6.97;4.73;;;24.30;59.90;;;;;;5033486;28;20804;-81
2022/11/12 21:51:33;;;;;;;10.57;5.50;;;24.20;59.90;;;;;;5033350;28;20515;-81
2022/11/12 21:54:03;;;;;;;8.47;5.57;;;24.30;60.30;;;;;;5033194;28;20432;-81
2022/11/12 21:56:32;;;;;;;8.30;5.53;;;24.30;60.60;;;;;;5033472;28;20799;-81
2022/11/12 21:59:00;;;;;;;8.20;6.30;;;24.30;60.80;;;;;;5033249;28;20449;-82
2022/11/12 22:01:28;;;;;;;6.57;5.80;;;24.30;60.70;;;;;;5033290;28;20538;-81
2022/11/12 22:03:56;;;;;;;8.00;5.50;;;24.30;60.70;;;;;;5033064;28;20444;-81
2022/11/12 22:06:25;;;;;;;7.40;5.70;;;24.30;60.70;;;;;;5033460;28;20443;-83
2022/11/12 22:08:53;;;;;;;8.50;6.20;;;24.30;60.60;;;;;;5033135;28;20446;-81
2022/11/12 22:11:22;;;;;;;6.23;4.77;;;24.20;60.60;;;;;;5033487;28;20453;-81
2022/11/12 22:13:49;;;;;;;5.97;4.40;;;24.20;60.50;;;;;;5034455;28;20489;-82
2022/11/12 22:16:18;;;;;;;5.47;4.93;;;24.20;60.40;;;;;;5036928;28;20451;-81
2022/11/12 22:18:46;;;;;;;6.77;5.00;;;24.20;60.30;;;;;;5036900;28;20443;-81
2022/11/12 22:21:16;;;;;;;6.27;5.37;;;24.20;60.30;;;;;;5036907;28;20451;-81
2022/11/12 22:23:43;;;;;;;6.93;5.50;;;24.20;60.30;;;;;;5036938;28;20446;-81
2022/11/12 22:26:11;;;;;;;7.37;4.90;;;24.20;60.30;;;;;;5036783;28;20933;-81
2022/11/12 22:28:39;;;;;;;7.40;4.87;;;24.20;60.30;;;;;;5036737;28;20568;-81
2022/11/12 22:31:07;;;;;;;6.70;5.20;;;24.20;60.20;;;;;;5037003;28;20455;-80
2022/11/12 22:33:35;;;;;;;7.27;4.97;;;24.20;60.10;;;;;;5036908;28;20448;-81
2022/11/12 22:36:02;;;;;;;5.83;5.27;;;24.20;60.10;;;;;;5037535;28;20501;-81
2022/11/12 22:38:33;;;;;;;5.50;5.00;;;24.20;60.10;;;;;;5036989;28;20456;-81
2022/11/12 22:41:05;;;;;;;6.13;5.33;;;24.20;60.00;;;;;;5036690;28;20435;-81
2022/11/12 22:43:32;;;;;;;8.83;5.73;;;24.20;60.00;;;;;;5036779;28;20443;-81
2022/11/12 22:46:05;;;;;;;7.47;5.50;;;24.20;60.00;;;;;;5036835;28;20468;-81
2022/11/12 22:48:32;;;;;;;7.23;4.70;;;24.20;60.00;;;;;;5036481;28;20432;-81
2022/11/12 22:51:00;;;;;;;7.20;4.97;;;24.20;60.00;;;;;;5036594;28;20440;-81
2022/11/12 22:53:27;;;;;;;5.57;4.60;;;24.20;60.00;;;;;;5036341;28;20970;-81
2022/11/12 22:55:54;;;;;;;5.57;5.03;;;24.20;59.90;;;;;;5036334;28;20471;-81
2022/11/12 22:58:21;;;;;;;6.50;4.43;;;24.10;59.80;;;;;;5036580;28;20446;-81
2022/11/12 23:00:48;;;;;;;6.57;5.97;;;24.20;60.00;;;;;;5036459;28;20445;-81
2022/11/12 23:03:16;;;;;;;5.97;4.50;;;24.10;59.80;;;;;;5036163;28;20495;-81
2022/11/12 23:05:43;;;;;;;11.77;5.87;;;24.10;59.80;;;;;;5036439;28;20535;-81
2022/11/12 23:08:09;;;;;;;7.73;4.77;;;24.10;59.80;;;;;;5036408;28;20445;-81
2022/11/12 23:10:36;;;;;;;6.27;4.93;;;24.10;59.80;;;;;;5036325;28;20444;-81
2022/11/12 23:13:03;;;;;;;5.43;4.93;;;24.10;59.80;;;;;;5036381;28;20455;-81
2022/11/12 23:15:30;;;;;;;5.30;4.90;;;24.10;59.80;;;;;;5036313;28;20787;-80
2022/11/12 23:17:57;;;;;;;5.80;4.97;;;24.10;59.80;;;;;;5036122;28;20451;-81
2022/11/12 23:20:25;;;;;;;5.40;4.90;;;24.10;59.80;;;;;;5036257;28;20452;-81
2022/11/12 23:22:52;;;;;;;7.10;5.40;;;24.10;59.80;;;;;;5035738;28;20987;-81
2022/11/12 23:25:18;;;;;;;5.40;4.90;;;24.10;59.80;;;;;;5034627;28;20960;-80
2022/11/12 23:27:45;;;;;;;5.23;4.73;;;24.10;59.70;;;;;;5035737;28;20481;-81
2022/11/12 23:30:12;;;;;;;5.67;5.03;;;24.10;59.70;;;;;;5035984;28;20443;-81
2022/11/12 23:32:39;;;;;;;5.50;4.80;;;24.10;59.70;;;;;;5035853;28;20863;-81
2022/11/12 23:35:07;;;;;;;6.07;5.47;;;24.10;59.70;;;;;;5035922;28;20820;-82
2022/11/12 23:37:35;;;;;;;6.07;4.60;;;24.10;59.70;;;;;;5035727;28;20455;-81
2022/11/12 23:40:02;;;;;;;5.70;5.20;;;24.10;59.70;;;;;;5035895;28;20547;-81
2022/11/12 23:42:29;;;;;;;5.07;4.57;;;24.10;59.70;;;;;;5035682;28;20493;-81
2022/11/12 23:44:56;;;;;;;7.13;5.97;;;24.10;59.60;;;;;;5035403;28;20946;-81
2022/11/12 23:47:23;;;;;;;6.13;4.70;;;24.00;59.60;;;;;;5035367;28;20933;-82
2022/11/12 23:49:49;;;;;;;7.57;5.77;;;24.10;59.70;;;;;;5035612;28;20445;-81
2022/11/12 23:52:16;;;;;;;6.50;5.37;;;24.10;59.70;;;;;;5035491;28;20814;-83
2022/11/12 23:54:44;;;;;;;6.03;5.40;;;24.10;59.60;;;;;;5035235;28;20442;-81
2022/11/12 23:57:11;;;;;;;5.00;4.53;;;24.10;59.60;;;;;;5035477;28;20441;-82
2022/11/12 23:59:38;;;;;;;5.80;5.00;;;24.10;59.60;;;;;;5035314;28;20447;-81
